createdAt,value
2019-01-25T00:02:22.488Z,40.85
2019-01-25T00:04:49.285Z,33.20
2019-01-25T00:07:15.942Z,42.78
2019-01-25T00:09:42.652Z,32.67
2019-01-25T00:12:09.389Z,38.33
2019-01-25T00:14:39.121Z,36.40
2019-01-25T00:17:08.768Z,36.00
2019-01-25T00:19:35.789Z,43.87
2019-01-25T00:22:02.646Z,34.35
2019-01-25T00:24:29.275Z,36.65
2019-01-25T00:26:55.754Z,37.35
2019-01-25T00:29:22.856Z,34.63
2019-01-25T00:31:49.583Z,37.20
2019-01-25T00:34:16.256Z,44.08
2019-01-25T00:36:43.058Z,40.17
2019-01-25T00:39:09.538Z,38.90
2019-01-25T00:41:38.635Z,40.95
2019-01-25T00:44:05.237Z,35.73
2019-01-25T00:46:31.654Z,40.90
2019-01-25T00:48:58.581Z,41.05
2019-01-25T00:51:24.937Z,42.70
2019-01-25T00:53:51.989Z,44.73
2019-01-25T00:56:18.628Z,43.00
2019-01-25T00:58:46.000Z,40.08
2019-01-25T01:01:12.469Z,46.28
2019-01-25T01:03:39.428Z,41.35
2019-01-25T01:06:06.165Z,45.20
2019-01-25T01:08:33.523Z,41.53
2019-01-25T01:11:00.068Z,41.65
2019-01-25T01:13:26.436Z,40.12
2019-01-25T01:15:53.577Z,49.80
2019-01-25T01:18:20.063Z,44.13
2019-01-25T01:20:47.001Z,41.68
2019-01-25T01:23:13.388Z,39.40
2019-01-25T01:25:42.689Z,40.80
2019-01-25T01:28:09.417Z,42.98
2019-01-25T01:30:35.988Z,39.42
2019-01-25T01:33:02.549Z,39.18
2019-01-25T01:35:29.082Z,40.63
2019-01-25T01:37:55.802Z,43.48
2019-01-25T01:40:22.755Z,37.40
2019-01-25T01:42:49.766Z,39.60
2019-01-25T01:45:17.154Z,42.88
2019-01-25T01:47:43.610Z,41.48
2019-01-25T01:50:12.281Z,39.15
2019-01-25T01:52:38.772Z,43.02
2019-01-25T01:55:05.423Z,37.65
2019-01-25T01:57:32.014Z,39.10
2019-01-25T01:59:58.381Z,37.67
2019-01-25T02:02:25.267Z,47.25
2019-01-25T02:04:52.236Z,42.05
2019-01-25T02:07:19.533Z,44.40
2019-01-25T02:09:46.107Z,41.92
2019-01-25T02:12:12.839Z,42.45
2019-01-25T02:14:39.468Z,38.45
2019-01-25T02:17:05.954Z,39.83
2019-01-25T02:19:35.831Z,39.95
2019-01-25T02:22:02.472Z,40.85
2019-01-25T02:24:29.435Z,42.43
2019-01-25T02:26:56.633Z,44.70
2019-01-25T02:29:23.225Z,39.33
2019-01-25T02:31:50.540Z,36.80
2019-01-25T02:34:17.586Z,41.20
2019-01-25T02:36:44.039Z,41.68
2019-01-25T02:39:13.489Z,42.53
2019-01-25T02:41:39.914Z,40.23
2019-01-25T02:44:06.479Z,41.00
2019-01-25T02:46:33.065Z,42.75
2019-01-25T02:48:59.605Z,41.00
2019-01-25T02:51:25.984Z,37.67
2019-01-25T02:53:52.571Z,33.00
2019-01-25T02:56:19.788Z,39.78
2019-01-25T02:58:46.147Z,42.10
2019-01-25T03:01:12.610Z,36.20
2019-01-25T03:03:39.156Z,40.70
2019-01-25T03:06:05.696Z,37.05
2019-01-25T03:08:32.232Z,42.17
2019-01-25T03:10:58.780Z,39.30
2019-01-25T03:13:25.471Z,45.05
2019-01-25T03:15:52.064Z,40.63
2019-01-25T03:18:18.569Z,40.20
2019-01-25T03:20:45.204Z,43.60
2019-01-25T03:23:11.701Z,38.42
2019-01-25T03:25:38.128Z,41.08
2019-01-25T03:28:05.022Z,39.60
2019-01-25T03:30:31.449Z,42.60
2019-01-25T03:32:58.492Z,37.53
2019-01-25T03:35:25.659Z,40.73
2019-01-25T03:37:53.428Z,38.13
2019-01-25T03:40:24.991Z,38.02
2019-01-25T03:42:54.726Z,40.73
2019-01-25T03:45:21.726Z,38.23
2019-01-25T03:47:48.567Z,40.52
2019-01-25T03:50:24.411Z,41.08
2019-01-25T03:52:51.493Z,43.60
2019-01-25T03:55:21.023Z,39.48
2019-01-25T03:57:47.645Z,39.55
2019-01-25T04:00:19.495Z,40.63
2019-01-25T04:02:46.008Z,37.83
2019-01-25T04:05:14.366Z,37.90
2019-01-25T04:07:41.109Z,33.42
2019-01-25T04:10:13.465Z,37.55
2019-01-25T04:12:40.712Z,37.95
2019-01-25T04:15:10.955Z,38.90
2019-01-25T04:17:37.509Z,34.78
2019-01-25T04:20:07.799Z,37.63
2019-01-25T04:22:34.351Z,40.05
2019-01-25T04:25:00.952Z,34.33
2019-01-25T04:27:27.368Z,36.17
2019-01-25T04:29:53.954Z,39.88
2019-01-25T04:32:20.515Z,39.23
2019-01-25T04:34:46.995Z,36.17
2019-01-25T04:37:13.346Z,39.63
2019-01-25T04:39:46.156Z,36.10
2019-01-25T04:42:12.484Z,33.50
2019-01-25T04:44:38.977Z,35.80
2019-01-25T04:47:05.689Z,38.73
2019-01-25T04:49:34.760Z,39.00
2019-01-25T04:52:01.427Z,33.88
2019-01-25T04:54:27.897Z,39.50
2019-01-25T04:56:54.492Z,35.23
2019-01-25T04:59:26.387Z,37.83
2019-01-25T05:01:52.934Z,40.85
2019-01-25T05:04:19.484Z,38.38
2019-01-25T05:06:46.125Z,32.42
2019-01-25T05:09:12.531Z,34.10
2019-01-25T05:11:39.099Z,38.05
2019-01-25T05:14:06.124Z,34.83
2019-01-25T05:16:33.205Z,35.65
2019-01-25T05:18:59.705Z,35.00
2019-01-25T05:21:26.414Z,38.25
2019-01-25T05:23:53.112Z,33.02
2019-01-25T05:26:19.822Z,41.40
2019-01-25T05:28:46.996Z,33.92
2019-01-25T05:31:13.444Z,42.90
2019-01-25T05:33:39.960Z,35.13
2019-01-25T05:36:06.351Z,38.45
2019-01-25T05:38:33.177Z,34.92
2019-01-25T05:40:59.590Z,38.75
2019-01-25T05:43:26.466Z,35.13
2019-01-25T05:45:53.083Z,38.48
2019-01-25T05:48:25.241Z,37.67
2019-01-25T05:50:56.279Z,34.80
2019-01-25T05:53:23.519Z,35.43
2019-01-25T05:55:50.514Z,36.95
2019-01-25T05:58:17.163Z,33.53
2019-01-25T06:00:45.137Z,31.33
2019-01-25T06:03:21.530Z,37.48
2019-01-25T06:05:49.448Z,35.60
2019-01-25T06:08:28.454Z,33.28
2019-01-25T06:10:55.291Z,32.53
2019-01-25T06:13:24.409Z,34.35
2019-01-25T06:15:51.371Z,37.75
2019-01-25T06:18:18.687Z,34.35
2019-01-25T06:20:51.568Z,35.80
2019-01-25T06:23:18.429Z,35.65
2019-01-25T06:25:53.545Z,32.90
2019-01-25T06:28:20.818Z,34.75
2019-01-25T06:30:47.596Z,35.78
2019-01-25T06:33:17.948Z,36.40
2019-01-25T06:35:44.416Z,35.05
2019-01-25T06:38:10.824Z,31.97
2019-01-25T06:40:37.544Z,37.55
2019-01-25T06:43:04.489Z,32.10
2019-01-25T06:45:31.083Z,31.70
2019-01-25T06:47:58.148Z,31.55
2019-01-25T06:50:25.166Z,30.97
2019-01-25T06:52:52.081Z,37.10
2019-01-25T06:55:18.606Z,31.80
2019-01-25T06:57:49.992Z,35.23
2019-01-25T07:00:19.806Z,40.35
2019-01-25T07:02:46.298Z,34.03
2019-01-25T07:05:13.047Z,41.23
2019-01-25T07:07:40.364Z,38.40
2019-01-25T07:10:10.503Z,37.75
2019-01-25T07:12:37.051Z,38.38
2019-01-25T07:15:07.387Z,35.52
2019-01-25T07:17:33.873Z,37.28
2019-01-25T07:20:00.286Z,39.73
2019-01-25T07:22:26.817Z,36.13
2019-01-25T07:24:57.145Z,37.45
2019-01-25T07:27:22.328Z,41.37
2019-01-25T07:29:49.395Z,39.85
2019-01-25T07:32:16.316Z,38.48
2019-01-25T07:34:42.725Z,43.87
2019-01-25T07:37:11.045Z,43.28
2019-01-25T07:39:38.541Z,41.90
2019-01-25T07:42:05.251Z,37.45
2019-01-25T07:44:32.142Z,40.40
2019-01-25T07:46:59.267Z,33.13
2019-01-25T07:49:26.101Z,34.92
2019-01-25T07:51:53.208Z,36.90
2019-01-25T07:54:22.070Z,40.03
2019-01-25T07:56:49.258Z,36.40
2019-01-25T07:59:16.026Z,31.23
2019-01-25T08:01:42.898Z,37.00
2019-01-25T08:04:09.253Z,35.92
2019-01-25T08:06:35.927Z,32.93
2019-01-25T08:09:05.546Z,31.40
2019-01-25T08:11:34.130Z,27.40
2019-01-25T08:14:00.807Z,31.48
2019-01-25T08:16:27.624Z,32.50
2019-01-25T08:18:54.902Z,27.40
2019-01-25T08:21:21.546Z,33.10
2019-01-25T08:23:48.809Z,26.93
2019-01-25T08:26:15.809Z,28.87
2019-01-25T08:28:44.130Z,32.67
2019-01-25T08:31:10.610Z,30.95
2019-01-25T08:33:37.859Z,30.70
2019-01-25T08:36:11.334Z,32.85
2019-01-25T08:38:37.657Z,33.28
2019-01-25T08:41:04.603Z,30.72
2019-01-25T08:43:31.615Z,33.80
2019-01-25T08:45:58.818Z,31.25
2019-01-25T08:48:25.675Z,35.58
2019-01-25T08:50:52.228Z,33.90
2019-01-25T08:53:19.454Z,29.25
2019-01-25T08:55:46.334Z,34.05
2019-01-25T08:58:13.138Z,30.95
2019-01-25T09:00:42.709Z,33.13
2019-01-25T09:03:09.261Z,28.30
2019-01-25T09:05:35.560Z,30.17
2019-01-25T09:08:02.519Z,30.25
2019-01-25T09:10:32.087Z,30.88
2019-01-25T09:12:58.758Z,31.57
2019-01-25T09:15:28.062Z,27.67
2019-01-25T09:17:54.707Z,32.73
2019-01-25T09:20:22.968Z,33.85
2019-01-25T09:22:50.543Z,35.48
2019-01-25T09:25:18.520Z,32.05
2019-01-25T09:27:46.561Z,28.75
2019-01-25T09:30:19.134Z,30.72
2019-01-25T09:32:48.937Z,31.75
2019-01-25T09:35:16.471Z,28.55
2019-01-25T09:37:42.998Z,31.87
2019-01-25T09:40:12.915Z,26.90
2019-01-25T09:42:39.404Z,25.32
2019-01-25T09:45:09.084Z,29.77
2019-01-25T09:47:35.471Z,32.55
2019-01-25T09:50:03.825Z,30.80
2019-01-25T09:52:33.766Z,24.60
2019-01-25T09:55:00.738Z,27.25
2019-01-25T09:57:27.302Z,25.95
2019-01-25T09:59:53.869Z,32.00
2019-01-25T10:02:21.232Z,30.10
2019-01-25T10:04:50.642Z,33.38
2019-01-25T10:07:17.260Z,31.07
2019-01-25T10:09:43.962Z,25.77
2019-01-25T10:12:10.506Z,30.75
2019-01-25T10:14:37.154Z,31.20
2019-01-25T10:17:03.684Z,32.67
2019-01-25T10:19:30.547Z,27.62
2019-01-25T10:21:57.068Z,31.48
2019-01-25T10:24:24.167Z,32.45
2019-01-25T10:26:50.915Z,25.27
2019-01-25T10:29:17.597Z,31.30
2019-01-25T10:31:44.313Z,28.47
2019-01-25T10:34:10.648Z,28.60
2019-01-25T10:36:37.103Z,30.05
2019-01-25T10:39:06.379Z,31.77
2019-01-25T10:41:32.862Z,31.48
2019-01-25T10:44:01.640Z,30.35
2019-01-25T10:46:28.149Z,31.73
2019-01-25T10:48:54.866Z,33.55
2019-01-25T10:51:22.974Z,31.48
2019-01-25T10:53:50.531Z,32.48
2019-01-25T10:56:17.196Z,32.28
2019-01-25T10:58:43.594Z,35.33
2019-01-25T11:01:09.922Z,37.13
2019-01-25T11:03:36.663Z,37.13
2019-01-25T11:06:03.534Z,38.45
2019-01-25T11:08:30.551Z,33.35
2019-01-25T11:10:57.028Z,33.58
2019-01-25T11:13:23.681Z,38.25
2019-01-25T11:15:50.608Z,37.78
2019-01-25T11:18:17.913Z,50.38
2019-01-25T11:20:44.809Z,39.33
2019-01-25T11:23:11.446Z,37.55
2019-01-25T11:25:40.610Z,40.45
2019-01-25T11:28:07.325Z,36.63
2019-01-25T11:30:34.916Z,41.00
2019-01-25T11:33:01.421Z,43.30
2019-01-25T11:35:29.440Z,37.25
2019-01-25T11:37:57.912Z,38.15
2019-01-25T11:40:33.860Z,35.98
2019-01-25T11:43:00.498Z,41.80
2019-01-25T11:45:27.558Z,38.58
2019-01-25T11:47:54.113Z,37.85
2019-01-25T11:50:20.979Z,43.98
2019-01-25T11:52:47.807Z,32.05
2019-01-25T11:55:16.394Z,36.40
2019-01-25T11:57:43.339Z,32.00
2019-01-25T12:00:13.617Z,33.02
2019-01-25T12:02:42.042Z,36.05
2019-01-25T12:05:10.821Z,35.00
2019-01-25T12:07:37.290Z,39.45
2019-01-25T12:10:07.816Z,35.15
2019-01-25T12:12:34.573Z,39.70
2019-01-25T12:15:01.517Z,34.60
2019-01-25T12:17:29.612Z,31.80
2019-01-25T12:19:56.309Z,41.33
2019-01-25T12:22:23.353Z,39.10
2019-01-25T12:24:50.363Z,39.98
2019-01-25T12:27:17.786Z,46.58
2019-01-25T12:29:44.569Z,35.55
2019-01-25T12:32:11.162Z,44.25
2019-01-25T12:34:37.396Z,40.28
2019-01-25T12:37:04.912Z,37.78
2019-01-25T12:39:33.299Z,44.00
2019-01-25T12:42:01.631Z,40.28
2019-01-25T12:44:29.077Z,45.95
2019-01-25T12:46:56.471Z,48.92
2019-01-25T12:49:24.200Z,40.08
2019-01-25T12:51:56.707Z,47.45
2019-01-25T12:54:24.153Z,47.50
2019-01-25T12:56:52.335Z,49.88
2019-01-25T12:59:19.818Z,41.30
2019-01-25T13:01:53.472Z,50.52
2019-01-25T13:04:23.115Z,45.40
2019-01-25T13:06:55.703Z,46.63
2019-01-25T13:09:22.726Z,46.83
2019-01-25T13:11:50.798Z,40.88
2019-01-25T13:14:18.807Z,48.33
2019-01-25T13:16:53.106Z,45.33
2019-01-25T13:19:20.197Z,44.73
2019-01-25T13:21:46.855Z,43.48
2019-01-25T13:24:13.187Z,45.45
2019-01-25T13:26:39.752Z,48.70
2019-01-25T13:29:06.360Z,45.60
2019-01-25T13:31:33.072Z,45.78
2019-01-25T13:33:59.625Z,43.87
2019-01-25T13:36:26.811Z,52.25
2019-01-25T13:38:53.879Z,56.05
2019-01-25T13:41:20.495Z,52.58
2019-01-25T13:43:48.436Z,55.38
2019-01-25T13:46:19.671Z,53.35
2019-01-25T13:48:46.950Z,45.25
2019-01-25T13:51:15.810Z,52.90
2019-01-25T13:53:42.155Z,48.10
2019-01-25T13:56:09.118Z,49.40
2019-01-25T13:58:36.228Z,46.25
2019-01-25T14:01:03.283Z,51.42
2019-01-25T14:03:32.434Z,53.00
2019-01-25T14:05:59.220Z,52.27
2019-01-25T14:08:26.365Z,53.25
2019-01-25T14:10:53.014Z,53.40
2019-01-25T14:13:19.750Z,57.50
2019-01-25T14:15:46.880Z,54.80
2019-01-25T14:18:15.297Z,57.80
2019-01-25T14:20:41.865Z,58.25
2019-01-25T14:23:08.156Z,57.43
2019-01-25T14:25:34.658Z,61.30
2019-01-25T14:28:01.574Z,62.85
2019-01-25T14:30:33.341Z,62.25
2019-01-25T14:33:00.271Z,58.15
2019-01-25T14:35:27.030Z,59.45
2019-01-25T14:37:53.670Z,66.87
2019-01-25T14:40:21.884Z,65.12
2019-01-25T14:42:48.819Z,58.58
2019-01-25T14:45:19.451Z,64.50
2019-01-25T14:47:46.443Z,70.52
2019-01-25T14:50:15.519Z,65.72
2019-01-25T14:52:42.074Z,59.70
2019-01-25T14:55:08.684Z,64.10
2019-01-25T14:57:36.533Z,61.85
2019-01-25T15:00:09.302Z,61.18
2019-01-25T15:02:35.849Z,69.55
2019-01-25T15:05:07.288Z,66.35
2019-01-25T15:07:37.928Z,77.53
2019-01-25T15:10:08.255Z,62.60
2019-01-25T15:12:34.597Z,58.17
2019-01-25T15:15:02.835Z,65.67
2019-01-25T15:17:29.646Z,68.20
2019-01-25T15:19:57.067Z,63.58
2019-01-25T15:22:23.952Z,63.28
2019-01-25T15:24:52.778Z,71.77
2019-01-25T15:27:21.882Z,57.48
2019-01-25T15:29:49.501Z,56.02
2019-01-25T15:32:23.731Z,67.67
2019-01-25T15:34:50.772Z,65.00
2019-01-25T15:37:22.259Z,55.90
2019-01-25T15:39:50.991Z,53.38
2019-01-25T15:42:18.230Z,54.53
2019-01-25T15:44:45.104Z,56.40
2019-01-25T15:47:11.401Z,58.60
2019-01-25T15:49:37.889Z,59.15
2019-01-25T15:52:04.589Z,55.12
2019-01-25T15:54:32.224Z,56.50
2019-01-25T15:56:58.771Z,60.67
2019-01-25T15:59:25.309Z,53.68
2019-01-25T16:01:51.916Z,51.37
2019-01-25T16:04:19.866Z,45.50
2019-01-25T16:06:46.639Z,46.92
2019-01-25T16:09:23.337Z,49.42
2019-01-25T16:11:42.590Z,46.83
2019-01-25T16:14:09.255Z,46.15
2019-01-25T16:16:36.339Z,49.27
2019-01-25T16:19:04.074Z,47.70
2019-01-25T16:21:30.552Z,50.38
2019-01-25T16:23:57.253Z,50.83
2019-01-25T16:26:23.947Z,54.03
2019-01-25T16:28:51.166Z,47.98
2019-01-25T16:31:17.761Z,49.75
2019-01-25T16:33:44.505Z,46.60
2019-01-25T16:36:10.971Z,52.50
2019-01-25T16:38:37.213Z,54.67
2019-01-25T16:41:03.585Z,50.73
2019-01-25T16:43:30.332Z,47.83
2019-01-25T16:45:57.116Z,53.38
2019-01-25T16:48:23.766Z,47.53
2019-01-25T16:50:50.443Z,47.58
2019-01-25T16:53:17.591Z,52.95
2019-01-25T16:55:44.104Z,46.95
2019-01-25T16:58:10.683Z,50.90
2019-01-25T17:00:39.510Z,44.38
2019-01-25T17:03:06.665Z,51.68
2019-01-25T17:05:39.514Z,49.95
2019-01-25T17:08:06.528Z,49.55
2019-01-25T17:10:33.658Z,56.33
2019-01-25T17:13:00.468Z,49.27
2019-01-25T17:15:27.168Z,45.92
2019-01-25T17:17:53.637Z,51.53
2019-01-25T17:20:24.011Z,53.42
2019-01-25T17:22:50.427Z,53.00
2019-01-25T17:25:23.211Z,42.65
2019-01-25T17:27:50.493Z,43.80
2019-01-25T17:30:28.943Z,51.60
2019-01-25T17:32:58.192Z,52.53
2019-01-25T17:35:40.256Z,50.85
2019-01-25T17:38:14.523Z,50.45
2019-01-25T17:43:46.672Z,50.17
2019-01-25T17:46:40.802Z,47.88
2019-01-25T17:49:09.295Z,45.95
2019-01-25T17:51:36.105Z,48.40
2019-01-25T17:54:03.882Z,47.65
2019-01-25T17:56:30.232Z,45.63
2019-01-25T17:58:57.132Z,49.50
2019-01-25T18:01:26.863Z,47.83
2019-01-25T18:03:54.251Z,50.92
2019-01-25T18:06:24.046Z,46.37
2019-01-25T18:08:50.768Z,48.02
2019-01-25T18:11:17.617Z,46.92
2019-01-25T18:13:44.309Z,45.40
2019-01-25T18:16:10.582Z,55.15
2019-01-25T18:18:37.956Z,49.73
2019-01-25T18:21:04.623Z,49.95
2019-01-25T18:23:31.279Z,45.55
2019-01-25T18:25:58.237Z,49.65
2019-01-25T18:28:28.710Z,44.60
2019-01-25T18:31:07.865Z,43.17
2019-01-25T18:33:34.831Z,51.48
2019-01-25T18:36:01.702Z,47.10
2019-01-25T18:38:28.818Z,49.30
2019-01-25T18:40:55.398Z,47.73
2019-01-25T18:43:25.555Z,49.27
2019-01-25T18:45:52.408Z,52.55
2019-01-25T18:48:19.172Z,55.63
2019-01-25T18:50:45.797Z,43.52
2019-01-25T18:53:12.552Z,47.55
2019-01-25T18:55:39.200Z,47.35
2019-01-25T18:58:05.883Z,42.25
2019-01-25T19:00:32.591Z,45.65
2019-01-25T19:02:59.580Z,46.30
2019-01-25T19:05:26.815Z,46.20
2019-01-25T19:07:53.730Z,45.85
2019-01-25T19:10:28.010Z,53.60
2019-01-25T19:12:54.869Z,48.80
2019-01-25T19:15:29.377Z,51.00
2019-01-25T19:17:55.954Z,45.78
2019-01-25T19:20:22.740Z,42.00
2019-01-25T19:22:49.400Z,47.20
2019-01-25T19:25:16.496Z,51.50
2019-01-25T19:27:46.760Z,47.55
2019-01-25T19:30:25.126Z,48.95
2019-01-25T19:32:52.221Z,39.88
2019-01-25T19:35:19.002Z,46.37
2019-01-25T19:37:45.550Z,49.83
2019-01-25T19:40:24.351Z,54.35
2019-01-25T19:42:50.810Z,52.70
2019-01-25T19:45:18.019Z,50.73
2019-01-25T19:47:44.541Z,43.80
2019-01-25T19:50:13.858Z,57.15
2019-01-25T19:52:40.711Z,47.78
2019-01-25T19:55:10.685Z,52.23
2019-01-25T19:57:37.875Z,50.17
2019-01-25T20:00:11.165Z,48.63
2019-01-25T20:02:37.727Z,49.80
2019-01-25T20:05:07.872Z,47.35
2019-01-25T20:07:34.282Z,51.55
2019-01-25T20:10:00.627Z,47.45
2019-01-25T20:12:27.854Z,48.17
2019-01-25T20:14:55.515Z,52.95
2019-01-25T20:17:22.580Z,55.40
2019-01-25T20:19:50.064Z,59.00
2019-01-25T20:22:16.706Z,52.15
2019-01-25T20:24:43.606Z,48.45
2019-01-25T20:27:10.151Z,58.60
2019-01-25T20:29:40.660Z,52.80
2019-01-25T20:32:07.820Z,58.73
2019-01-25T20:34:34.707Z,51.18
2019-01-25T20:37:01.562Z,55.90
2019-01-25T20:39:28.460Z,55.90
2019-01-25T20:41:55.750Z,51.15
2019-01-25T20:44:22.294Z,55.92
2019-01-25T20:46:49.473Z,57.55
2019-01-25T20:49:17.450Z,49.88
2019-01-25T20:51:49.375Z,66.28
2019-01-25T20:54:13.309Z,50.55
2019-01-25T20:56:39.755Z,57.00
2019-01-25T20:59:06.642Z,53.35
2019-01-25T21:01:33.249Z,55.52
2019-01-25T21:04:00.011Z,50.52
2019-01-25T21:06:29.126Z,64.10
2019-01-25T21:08:56.287Z,52.00
2019-01-25T21:11:23.458Z,57.35
2019-01-25T21:13:50.208Z,58.90
2019-01-25T21:16:16.925Z,56.28
2019-01-25T21:18:44.274Z,60.95
2019-01-25T21:21:13.904Z,66.45
2019-01-25T21:23:43.143Z,63.40
2019-01-25T21:26:14.194Z,67.67
2019-01-25T21:28:40.506Z,51.10
2019-01-25T21:31:07.142Z,63.80
2019-01-25T21:33:33.676Z,68.42
2019-01-25T21:36:00.796Z,61.75
2019-01-25T21:38:30.790Z,54.23
2019-01-25T21:40:57.631Z,63.98
2019-01-25T21:43:24.452Z,57.65
2019-01-25T21:45:51.272Z,55.98
2019-01-25T21:48:18.115Z,65.85
2019-01-25T21:50:44.820Z,58.65
2019-01-25T21:53:11.278Z,64.95
2019-01-25T21:55:39.162Z,57.73
2019-01-25T21:58:05.951Z,58.23
2019-01-25T22:00:34.840Z,68.95
2019-01-25T22:03:01.537Z,56.68
2019-01-25T22:05:28.221Z,57.00
2019-01-25T22:07:58.208Z,65.03
2019-01-25T22:10:34.166Z,52.38
2019-01-25T22:13:07.545Z,56.08
2019-01-25T22:15:34.721Z,53.25
2019-01-25T22:18:02.995Z,56.92
2019-01-25T22:20:31.092Z,60.25
2019-01-25T22:22:58.201Z,51.10
2019-01-25T22:25:26.772Z,56.53
2019-01-25T22:27:58.559Z,50.28
2019-01-25T22:30:33.967Z,50.40
2019-01-25T22:33:00.784Z,51.50
2019-01-25T22:35:27.911Z,55.85
2019-01-25T22:37:54.410Z,48.13
2019-01-25T22:40:27.718Z,51.40
2019-01-25T22:42:55.311Z,47.03
2019-01-25T22:45:25.340Z,48.17
2019-01-25T22:47:52.053Z,43.78
2019-01-25T22:50:22.933Z,46.18
2019-01-25T22:52:51.279Z,50.58
2019-01-25T22:55:29.721Z,51.70
2019-01-25T22:57:59.161Z,55.75
2019-01-25T23:00:48.421Z,45.88
2019-01-25T23:03:36.442Z,46.50
2019-01-25T23:06:15.408Z,38.33
2019-01-25T23:08:44.668Z,51.08
2019-01-25T23:11:11.318Z,45.95
2019-01-25T23:13:37.961Z,38.78
2019-01-25T23:16:06.411Z,45.52
2019-01-25T23:18:32.826Z,40.38
2019-01-25T23:20:59.336Z,42.15
2019-01-25T23:23:25.877Z,42.93
2019-01-25T23:25:53.297Z,37.83
2019-01-25T23:28:19.773Z,35.23
2019-01-25T23:30:46.880Z,41.20
2019-01-25T23:33:13.972Z,39.18
2019-01-25T23:35:40.473Z,40.00
2019-01-25T23:38:07.022Z,31.90
2019-01-25T23:40:33.516Z,35.10
2019-01-25T23:43:00.330Z,39.13
2019-01-25T23:45:27.092Z,35.08
2019-01-25T23:47:53.587Z,37.48
2019-01-25T23:50:20.247Z,29.70
2019-01-25T23:52:49.859Z,32.65
2019-01-25T23:55:16.428Z,29.98
2019-01-25T23:57:43.069Z,27.25
